sensor_id;sensor_type;location;lat;lon;timestamp;P1;durP1;ratioP1;P2;durP2;ratioP2
7080;SDS011;3582;51.506;11.948;2024-03-23T00:55:02;9.43;;;7.63;;
7080;SDS011;3582;51.506;11.948;2024-03-23T00:57:28;15.93;;;8.70;;
7080;SDS011;3582;51.506;11.948;2024-03-23T00:59:54;11.53;;;7.60;;
7080;SDS011;3582;51.506;11.948;2024-03-23T01:02:20;11.30;;;8.40;;
7080;SDS011;3582;51.506;11.948;2024-03-23T01:04:47;17.42;;;9.85;;
7080;SDS011;3582;51.506;11.948;2024-03-23T01:07:13;12.63;;;8.00;;
7080;SDS011;3582;51.506;11.948;2024-03-23T01:09:39;9.20;;;7.87;;
7080;SDS011;3582;51.506;11.948;2024-03-23T01:12:05;11.80;;;8.93;;
7080;SDS011;3582;51.506;11.948;2024-03-23T01:14:31;15.13;;;10.23;;
7080;SDS011;3582;51.506;11.948;2024-03-23T01:16:57;13.85;;;8.75;;
7080;SDS011;3582;51.506;11.948;2024-03-23T01:19:23;16.70;;;10.70;;
7080;SDS011;3582;51.506;11.948;2024-03-23T01:21:49;12.63;;;9.90;;
7080;SDS011;3582;51.506;11.948;2024-03-23T01:24:15;14.07;;;10.60;;
7080;SDS011;3582;51.506;11.948;2024-03-23T01:26:41;11.60;;;9.23;;
7080;SDS011;3582;51.506;11.948;2024-03-23T01:29:07;16.13;;;9.23;;
7080;SDS011;3582;51.506;11.948;2024-03-23T01:31:33;13.43;;;10.17;;
7080;SDS011;3582;51.506;11.948;2024-03-23T01:33:59;18.03;;;10.00;;
7080;SDS011;3582;51.506;11.948;2024-03-23T01:36:25;18.37;;;10.77;;
7080;SDS011;3582;51.506;11.948;2024-03-23T01:38:51;14.20;;;10.27;;
7080;SDS011;3582;51.506;11.948;2024-03-23T01:41:17;16.13;;;10.53;;
7080;SDS011;3582;51.506;11.948;2024-03-23T01:43:43;20.42;;;11.18;;
7080;SDS011;3582;51.506;11.948;2024-03-23T01:46:09;12.70;;;8.93;;
7080;SDS011;3582;51.506;11.948;2024-03-23T01:48:35;13.97;;;9.70;;
7080;SDS011;3582;51.506;11.948;2024-03-23T01:51:01;19.40;;;10.02;;
7080;SDS011;3582;51.506;11.948;2024-03-23T01:53:27;22.93;;;10.63;;
7080;SDS011;3582;51.506;11.948;2024-03-23T01:55:53;17.95;;;10.43;;
7080;SDS011;3582;51.506;11.948;2024-03-23T01:58:20;16.13;;;10.75;;
7080;SDS011;3582;51.506;11.948;2024-03-23T02:00:46;22.37;;;10.20;;
7080;SDS011;3582;51.506;11.948;2024-03-23T02:03:27;24.03;;;10.37;;
7080;SDS011;3582;51.506;11.948;2024-03-23T02:05:54;19.48;;;10.73;;
7080;SDS011;3582;51.506;11.948;2024-03-23T02:08:20;15.43;;;11.15;;
7080;SDS011;3582;51.506;11.948;2024-03-23T02:10:47;14.57;;;11.20;;
7080;SDS011;3582;51.506;11.948;2024-03-23T02:13:14;21.95;;;11.85;;
7080;SDS011;3582;51.506;11.948;2024-03-23T02:15:41;21.02;;;12.73;;
7080;SDS011;3582;51.506;11.948;2024-03-23T02:18:07;16.17;;;11.60;;
7080;SDS011;3582;51.506;11.948;2024-03-23T02:20:36;19.13;;;12.43;;
7080;SDS011;3582;51.506;11.948;2024-03-23T02:23:03;16.15;;;10.85;;
7080;SDS011;3582;51.506;11.948;2024-03-23T02:25:31;20.65;;;11.95;;
7080;SDS011;3582;51.506;11.948;2024-03-23T02:27:57;20.08;;;12.90;;
7080;SDS011;3582;51.506;11.948;2024-03-23T02:30:24;19.70;;;12.88;;
7080;SDS011;3582;51.506;11.948;2024-03-23T02:32:50;23.17;;;12.65;;
7080;SDS011;3582;51.506;11.948;2024-03-23T02:35:16;19.70;;;13.07;;
7080;SDS011;3582;51.506;11.948;2024-03-23T02:37:42;24.73;;;11.90;;
7080;SDS011;3582;51.506;11.948;2024-03-23T02:40:07;16.87;;;11.43;;
7080;SDS011;3582;51.506;11.948;2024-03-23T02:42:34;27.88;;;12.27;;
7080;SDS011;3582;51.506;11.948;2024-03-23T02:45:00;16.73;;;12.33;;
7080;SDS011;3582;51.506;11.948;2024-03-23T02:47:25;18.20;;;13.50;;
7080;SDS011;3582;51.506;11.948;2024-03-23T02:49:51;16.23;;;10.93;;
7080;SDS011;3582;51.506;11.948;2024-03-23T02:52:17;20.40;;;14.10;;
7080;SDS011;3582;51.506;11.948;2024-03-23T02:54:43;17.17;;;11.87;;
7080;SDS011;3582;51.506;11.948;2024-03-23T02:57:10;20.38;;;11.98;;
7080;SDS011;3582;51.506;11.948;2024-03-23T02:59:36;22.23;;;12.50;;
7080;SDS011;3582;51.506;11.948;2024-03-23T03:02:02;21.27;;;13.47;;
7080;SDS011;3582;51.506;11.948;2024-03-23T03:04:29;22.25;;;13.00;;
7080;SDS011;3582;51.506;11.948;2024-03-23T03:06:55;17.77;;;12.73;;
7080;SDS011;3582;51.506;11.948;2024-03-23T03:09:21;21.63;;;12.97;;
7080;SDS011;3582;51.506;11.948;2024-03-23T03:11:47;20.17;;;13.87;;
7080;SDS011;3582;51.506;11.948;2024-03-23T03:14:13;18.27;;;11.53;;
7080;SDS011;3582;51.506;11.948;2024-03-23T03:16:39;19.23;;;12.43;;
7080;SDS011;3582;51.506;11.948;2024-03-23T03:19:05;20.83;;;12.80;;
7080;SDS011;3582;51.506;11.948;2024-03-23T03:21:31;31.70;;;16.37;;
7080;SDS011;3582;51.506;11.948;2024-03-23T03:23:57;17.95;;;11.73;;
7080;SDS011;3582;51.506;11.948;2024-03-23T03:26:23;22.90;;;13.52;;
7080;SDS011;3582;51.506;11.948;2024-03-23T03:28:50;19.17;;;12.93;;
7080;SDS011;3582;51.506;11.948;2024-03-23T03:31:16;18.77;;;12.55;;
7080;SDS011;3582;51.506;11.948;2024-03-23T03:33:42;20.20;;;13.55;;
7080;SDS011;3582;51.506;11.948;2024-03-23T03:36:08;16.10;;;12.80;;
7080;SDS011;3582;51.506;11.948;2024-03-23T03:38:34;19.15;;;12.57;;
7080;SDS011;3582;51.506;11.948;2024-03-23T03:41:01;29.15;;;14.55;;
7080;SDS011;3582;51.506;11.948;2024-03-23T03:43:27;23.35;;;14.00;;
7080;SDS011;3582;51.506;11.948;2024-03-23T03:45:53;22.25;;;13.27;;
7080;SDS011;3582;51.506;11.948;2024-03-23T03:48:19;18.08;;;11.90;;
7080;SDS011;3582;51.506;11.948;2024-03-23T03:50:45;18.67;;;12.90;;
7080;SDS011;3582;51.506;11.948;2024-03-23T03:53:11;21.50;;;14.10;;
7080;SDS011;3582;51.506;11.948;2024-03-23T03:55:37;20.70;;;12.90;;
7080;SDS011;3582;51.506;11.948;2024-03-23T03:58:03;19.20;;;13.23;;
7080;SDS011;3582;51.506;11.948;2024-03-23T04:00:32;22.77;;;12.02;;
7080;SDS011;3582;51.506;11.948;2024-03-23T04:02:58;23.37;;;13.83;;
7080;SDS011;3582;51.506;11.948;2024-03-23T04:05:24;22.80;;;13.30;;
7080;SDS011;3582;51.506;11.948;2024-03-23T04:07:50;20.73;;;14.03;;
7080;SDS011;3582;51.506;11.948;2024-03-23T04:10:15;25.33;;;13.47;;
7080;SDS011;3582;51.506;11.948;2024-03-23T04:12:42;19.50;;;12.67;;
7080;SDS011;3582;51.506;11.948;2024-03-23T04:15:08;18.23;;;12.52;;
7080;SDS011;3582;51.506;11.948;2024-03-23T04:17:35;17.92;;;12.70;;
7080;SDS011;3582;51.506;11.948;2024-03-23T04:20:01;26.10;;;13.97;;
7080;SDS011;3582;51.506;11.948;2024-03-23T04:22:29;20.98;;;14.20;;
7080;SDS011;3582;51.506;11.948;2024-03-23T04:24:55;24.73;;;13.30;;
7080;SDS011;3582;51.506;11.948;2024-03-23T04:27:21;22.27;;;13.60;;
7080;SDS011;3582;51.506;11.948;2024-03-23T04:29:48;20.25;;;11.15;;
7080;SDS011;3582;51.506;11.948;2024-03-23T04:32:14;21.48;;;13.93;;
7080;SDS011;3582;51.506;11.948;2024-03-23T04:34:40;25.30;;;14.80;;
7080;SDS011;3582;51.506;11.948;2024-03-23T04:37:07;21.20;;;13.80;;
7080;SDS011;3582;51.506;11.948;2024-03-23T04:39:33;18.50;;;12.23;;
7080;SDS011;3582;51.506;11.948;2024-03-23T04:41:59;18.55;;;11.50;;
7080;SDS011;3582;51.506;11.948;2024-03-23T04:44:26;20.48;;;12.70;;
7080;SDS011;3582;51.506;11.948;2024-03-23T04:46:52;18.27;;;13.43;;
7080;SDS011;3582;51.506;11.948;2024-03-23T04:49:18;23.43;;;14.20;;
7080;SDS011;3582;51.506;11.948;2024-03-23T04:51:44;20.02;;;11.82;;
7080;SDS011;3582;51.506;11.948;2024-03-23T04:54:11;18.85;;;11.88;;
7080;SDS011;3582;51.506;11.948;2024-03-23T04:56:37;16.20;;;11.60;;
7080;SDS011;3582;51.506;11.948;2024-03-23T04:59:02;16.83;;;11.60;;
7080;SDS011;3582;51.506;11.948;2024-03-23T05:01:30;14.30;;;10.80;;
7080;SDS011;3582;51.506;11.948;2024-03-23T05:03:56;22.67;;;10.73;;
7080;SDS011;3582;51.506;11.948;2024-03-23T05:06:22;20.73;;;11.10;;
7080;SDS011;3582;51.506;11.948;2024-03-23T05:08:48;17.70;;;10.32;;
7080;SDS011;3582;51.506;11.948;2024-03-23T05:11:14;18.92;;;10.02;;
7080;SDS011;3582;51.506;11.948;2024-03-23T05:13:41;16.70;;;10.00;;
7080;SDS011;3582;51.506;11.948;2024-03-23T05:16:07;16.67;;;9.52;;
7080;SDS011;3582;51.506;11.948;2024-03-23T05:18:33;14.30;;;8.77;;
7080;SDS011;3582;51.506;11.948;2024-03-23T05:20:59;15.40;;;8.57;;
7080;SDS011;3582;51.506;11.948;2024-03-23T05:23:25;20.33;;;12.05;;
7080;SDS011;3582;51.506;11.948;2024-03-23T05:25:51;16.48;;;9.82;;
7080;SDS011;3582;51.506;11.948;2024-03-23T05:28:18;15.60;;;8.32;;
7080;SDS011;3582;51.506;11.948;2024-03-23T05:30:44;11.90;;;7.60;;
7080;SDS011;3582;51.506;11.948;2024-03-23T05:33:15;14.95;;;8.55;;
7080;SDS011;3582;51.506;11.948;2024-03-23T05:35:41;13.10;;;8.55;;
7080;SDS011;3582;51.506;11.948;2024-03-23T05:38:07;18.43;;;9.17;;
7080;SDS011;3582;51.506;11.948;2024-03-23T05:40:33;13.87;;;8.27;;
7080;SDS011;3582;51.506;11.948;2024-03-23T05:43:02;18.95;;;9.90;;
7080;SDS011;3582;51.506;11.948;2024-03-23T05:45:28;21.63;;;9.98;;
7080;SDS011;3582;51.506;11.948;2024-03-23T05:47:54;17.60;;;9.50;;
7080;SDS011;3582;51.506;11.948;2024-03-23T05:50:21;14.48;;;8.10;;
7080;SDS011;3582;51.506;11.948;2024-03-23T05:52:47;12.43;;;8.73;;
7080;SDS011;3582;51.506;11.948;2024-03-23T05:55:14;17.77;;;7.70;;
7080;SDS011;3582;51.506;11.948;2024-03-23T05:57:40;18.50;;;8.73;;
7080;SDS011;3582;51.506;11.948;2024-03-23T06:00:06;15.63;;;7.77;;
7080;SDS011;3582;51.506;11.948;2024-03-23T06:02:41;13.38;;;8.27;;
7080;SDS011;3582;51.506;11.948;2024-03-23T06:05:09;10.20;;;6.22;;
7080;SDS011;3582;51.506;11.948;2024-03-23T06:07:35;12.40;;;7.40;;
7080;SDS011;3582;51.506;11.948;2024-03-23T06:10:01;21.23;;;7.07;;
7080;SDS011;3582;51.506;11.948;2024-03-23T06:12:27;16.83;;;6.77;;
7080;SDS011;3582;51.506;11.948;2024-03-23T06:14:53;15.00;;;7.23;;
7080;SDS011;3582;51.506;11.948;2024-03-23T06:17:19;13.67;;;6.80;;
7080;SDS011;3582;51.506;11.948;2024-03-23T06:19:45;12.25;;;5.55;;
7080;SDS011;3582;51.506;11.948;2024-03-23T06:22:10;9.50;;;4.90;;
7080;SDS011;3582;51.506;11.948;2024-03-23T06:24:37;7.30;;;5.03;;
7080;SDS011;3582;51.506;11.948;2024-03-23T06:27:02;11.07;;;4.80;;
7080;SDS011;3582;51.506;11.948;2024-03-23T06:29:29;9.75;;;5.05;;
7080;SDS011;3582;51.506;11.948;2024-03-23T06:31:55;7.93;;;4.20;;
7080;SDS011;3582;51.506;11.948;2024-03-23T06:34:21;9.73;;;4.80;;
7080;SDS011;3582;51.506;11.948;2024-03-23T06:36:48;8.90;;;3.80;;
7080;SDS011;3582;51.506;11.948;2024-03-23T06:39:14;3.30;;;3.00;;
7080;SDS011;3582;51.506;11.948;2024-03-23T06:41:51;3.90;;;3.05;;
7080;SDS011;3582;51.506;11.948;2024-03-23T06:44:17;5.93;;;2.47;;
7080;SDS011;3582;51.506;11.948;2024-03-23T06:46:43;3.08;;;2.35;;
7080;SDS011;3582;51.506;11.948;2024-03-23T06:49:09;3.20;;;2.90;;
7080;SDS011;3582;51.506;11.948;2024-03-23T06:51:35;9.30;;;3.53;;
7080;SDS011;3582;51.506;11.948;2024-03-23T06:54:02;8.45;;;4.10;;
7080;SDS011;3582;51.506;11.948;2024-03-23T06:56:28;5.38;;;3.50;;
7080;SDS011;3582;51.506;11.948;2024-03-23T06:58:54;5.60;;;3.33;;
7080;SDS011;3582;51.506;11.948;2024-03-23T07:01:20;9.60;;;3.73;;
7080;SDS011;3582;51.506;11.948;2024-03-23T07:03:46;7.90;;;4.47;;
7080;SDS011;3582;51.506;11.948;2024-03-23T07:06:12;8.80;;;3.73;;
7080;SDS011;3582;51.506;11.948;2024-03-23T07:08:38;5.70;;;4.03;;
7080;SDS011;3582;51.506;11.948;2024-03-23T07:11:04;7.53;;;3.83;;
7080;SDS011;3582;51.506;11.948;2024-03-23T07:13:30;5.13;;;3.47;;
7080;SDS011;3582;51.506;11.948;2024-03-23T07:15:56;3.47;;;2.72;;
7080;SDS011;3582;51.506;11.948;2024-03-23T07:18:23;4.78;;;3.15;;
7080;SDS011;3582;51.506;11.948;2024-03-23T07:20:53;3.20;;;2.33;;
7080;SDS011;3582;51.506;11.948;2024-03-23T07:23:19;2.45;;;1.88;;
7080;SDS011;3582;51.506;11.948;2024-03-23T07:25:45;3.80;;;3.47;;
7080;SDS011;3582;51.506;11.948;2024-03-23T07:28:11;8.75;;;2.35;;
7080;SDS011;3582;51.506;11.948;2024-03-23T07:30:37;5.77;;;2.53;;
7080;SDS011;3582;51.506;11.948;2024-03-23T07:33:03;3.10;;;2.00;;
7080;SDS011;3582;51.506;11.948;2024-03-23T07:35:29;6.40;;;1.55;;
7080;SDS011;3582;51.506;11.948;2024-03-23T07:37:55;5.85;;;1.75;;
7080;SDS011;3582;51.506;11.948;2024-03-23T07:40:20;6.50;;;2.63;;
7080;SDS011;3582;51.506;11.948;2024-03-23T07:42:46;4.83;;;2.23;;
7080;SDS011;3582;51.506;11.948;2024-03-23T07:45:12;5.50;;;2.53;;
7080;SDS011;3582;51.506;11.948;2024-03-23T07:47:38;6.43;;;2.10;;
7080;SDS011;3582;51.506;11.948;2024-03-23T07:50:04;2.53;;;2.00;;
7080;SDS011;3582;51.506;11.948;2024-03-23T07:52:30;5.32;;;2.42;;
7080;SDS011;3582;51.506;11.948;2024-03-23T07:54:56;3.42;;;2.60;;
7080;SDS011;3582;51.506;11.948;2024-03-23T07:57:22;2.90;;;2.00;;
7080;SDS011;3582;51.506;11.948;2024-03-23T07:59:48;3.47;;;2.00;;
7080;SDS011;3582;51.506;11.948;2024-03-23T08:02:14;2.58;;;1.70;;
7080;SDS011;3582;51.506;11.948;2024-03-23T08:04:40;4.93;;;2.30;;
7080;SDS011;3582;51.506;11.948;2024-03-23T08:07:06;4.10;;;2.43;;
7080;SDS011;3582;51.506;11.948;2024-03-23T08:09:32;2.50;;;2.30;;
7080;SDS011;3582;51.506;11.948;2024-03-23T08:11:58;12.73;;;3.40;;
7080;SDS011;3582;51.506;11.948;2024-03-23T08:14:24;6.70;;;2.90;;
7080;SDS011;3582;51.506;11.948;2024-03-23T08:16:50;7.20;;;2.70;;
7080;SDS011;3582;51.506;11.948;2024-03-23T08:19:16;5.60;;;2.35;;
7080;SDS011;3582;51.506;11.948;2024-03-23T08:21:42;3.55;;;2.80;;
7080;SDS011;3582;51.506;11.948;2024-03-23T08:24:08;7.13;;;3.30;;
7080;SDS011;3582;51.506;11.948;2024-03-23T08:26:34;4.88;;;2.80;;
7080;SDS011;3582;51.506;11.948;2024-03-23T08:29:02;4.05;;;3.10;;
7080;SDS011;3582;51.506;11.948;2024-03-23T08:31:28;6.97;;;2.53;;
7080;SDS011;3582;51.506;11.948;2024-03-23T08:33:54;4.70;;;2.60;;
7080;SDS011;3582;51.506;11.948;2024-03-23T08:36:20;5.50;;;2.50;;
7080;SDS011;3582;51.506;11.948;2024-03-23T08:38:45;4.40;;;2.60;;
7080;SDS011;3582;51.506;11.948;2024-03-23T08:41:12;4.65;;;2.78;;
7080;SDS011;3582;51.506;11.948;2024-03-23T08:43:39;4.95;;;3.20;;
7080;SDS011;3582;51.506;11.948;2024-03-23T08:46:05;6.25;;;2.17;;
7080;SDS011;3582;51.506;11.948;2024-03-23T08:48:32;2.60;;;1.52;;
7080;SDS011;3582;51.506;11.948;2024-03-23T08:51:04;6.43;;;3.25;;
7080;SDS011;3582;51.506;11.948;2024-03-23T08:53:31;2.90;;;2.38;;
7080;SDS011;3582;51.506;11.948;2024-03-23T08:55:57;4.22;;;2.42;;
7080;SDS011;3582;51.506;11.948;2024-03-23T08:58:24;7.35;;;2.67;;
7080;SDS011;3582;51.506;11.948;2024-03-23T09:00:50;4.85;;;1.95;;
7080;SDS011;3582;51.506;11.948;2024-03-23T09:03:16;2.30;;;1.92;;
7080;SDS011;3582;51.506;11.948;2024-03-23T09:05:42;2.70;;;1.30;;
7080;SDS011;3582;51.506;11.948;2024-03-23T09:08:08;2.00;;;1.23;;
7080;SDS011;3582;51.506;11.948;2024-03-23T09:10:38;4.28;;;1.83;;
7080;SDS011;3582;51.506;11.948;2024-03-23T09:13:04;1.55;;;1.45;;
7080;SDS011;3582;51.506;11.948;2024-03-23T09:15:30;3.80;;;1.93;;
7080;SDS011;3582;51.506;11.948;2024-03-23T09:17:56;4.03;;;1.63;;
7080;SDS011;3582;51.506;11.948;2024-03-23T09:20:24;1.63;;;1.52;;
7080;SDS011;3582;51.506;11.948;2024-03-23T09:22:50;2.07;;;1.87;;
7080;SDS011;3582;51.506;11.948;2024-03-23T09:25:16;3.80;;;1.63;;
7080;SDS011;3582;51.506;11.948;2024-03-23T09:27:42;3.53;;;1.50;;
7080;SDS011;3582;51.506;11.948;2024-03-23T09:30:08;1.55;;;1.45;;
7080;SDS011;3582;51.506;11.948;2024-03-23T09:32:35;3.47;;;1.80;;
7080;SDS011;3582;51.506;11.948;2024-03-23T09:35:01;2.70;;;1.80;;
7080;SDS011;3582;51.506;11.948;2024-03-23T09:37:26;2.10;;;1.13;;
7080;SDS011;3582;51.506;11.948;2024-03-23T09:39:53;1.58;;;1.48;;
7080;SDS011;3582;51.506;11.948;2024-03-23T09:42:19;2.23;;;1.97;;
7080;SDS011;3582;51.506;11.948;2024-03-23T09:44:45;3.70;;;1.83;;
7080;SDS011;3582;51.506;11.948;2024-03-23T09:47:11;4.22;;;1.75;;
7080;SDS011;3582;51.506;11.948;2024-03-23T09:49:37;3.73;;;3.43;;
7080;SDS011;3582;51.506;11.948;2024-03-23T09:52:03;3.08;;;2.30;;
7080;SDS011;3582;51.506;11.948;2024-03-23T09:54:29;3.03;;;2.80;;
7080;SDS011;3582;51.506;11.948;2024-03-23T09:56:57;2.72;;;2.53;;
7080;SDS011;3582;51.506;11.948;2024-03-23T09:59:23;8.97;;;3.50;;
7080;SDS011;3582;51.506;11.948;2024-03-23T10:01:51;4.00;;;3.53;;
7080;SDS011;3582;51.506;11.948;2024-03-23T10:04:39;8.07;;;4.80;;
7080;SDS011;3582;51.506;11.948;2024-03-23T10:07:14;6.10;;;4.60;;
7080;SDS011;3582;51.506;11.948;2024-03-23T10:09:42;4.60;;;4.20;;
7080;SDS011;3582;51.506;11.948;2024-03-23T10:12:11;5.00;;;4.60;;
7080;SDS011;3582;51.506;11.948;2024-03-23T10:14:38;5.28;;;4.88;;
7080;SDS011;3582;51.506;11.948;2024-03-23T10:19:43;5.93;;;3.42;;
7080;SDS011;3582;51.506;11.948;2024-03-23T10:22:12;4.55;;;2.92;;
7080;SDS011;3582;51.506;11.948;2024-03-23T10:24:38;5.82;;;2.60;;
7080;SDS011;3582;51.506;11.948;2024-03-23T10:27:04;3.00;;;2.50;;
7080;SDS011;3582;51.506;11.948;2024-03-23T10:29:30;2.95;;;2.45;;
7080;SDS011;3582;51.506;11.948;2024-03-23T10:32:09;3.45;;;2.58;;
7080;SDS011;3582;51.506;11.948;2024-03-23T10:34:36;4.15;;;2.55;;
7080;SDS011;3582;51.506;11.948;2024-03-23T10:37:02;3.90;;;2.00;;
7080;SDS011;3582;51.506;11.948;2024-03-23T10:39:32;3.90;;;1.90;;
7080;SDS011;3582;51.506;11.948;2024-03-23T10:42:00;4.25;;;1.63;;
7080;SDS011;3582;51.506;11.948;2024-03-23T10:44:26;5.20;;;1.83;;
7080;SDS011;3582;51.506;11.948;2024-03-23T10:46:54;6.53;;;1.80;;
7080;SDS011;3582;51.506;11.948;2024-03-23T10:49:24;5.07;;;3.55;;
7080;SDS011;3582;51.506;11.948;2024-03-23T10:51:50;5.57;;;2.22;;
7080;SDS011;3582;51.506;11.948;2024-03-23T10:54:16;6.87;;;2.30;;
7080;SDS011;3582;51.506;11.948;2024-03-23T10:56:44;8.23;;;2.83;;
7080;SDS011;3582;51.506;11.948;2024-03-23T10:59:10;4.40;;;2.40;;
7080;SDS011;3582;51.506;11.948;2024-03-23T11:01:53;8.30;;;3.22;;
7080;SDS011;3582;51.506;11.948;2024-03-23T11:04:35;3.83;;;1.75;;
7080;SDS011;3582;51.506;11.948;2024-03-23T11:07:46;6.47;;;1.83;;
7080;SDS011;3582;51.506;11.948;2024-03-23T11:09:53;5.10;;;2.17;;
7080;SDS011;3582;51.506;11.948;2024-03-23T11:14:45;5.55;;;2.45;;
7080;SDS011;3582;51.506;11.948;2024-03-23T11:17:13;4.85;;;2.33;;
7080;SDS011;3582;51.506;11.948;2024-03-23T11:19:43;6.38;;;1.80;;
7080;SDS011;3582;51.506;11.948;2024-03-23T11:22:09;2.08;;;1.85;;
7080;SDS011;3582;51.506;11.948;2024-03-23T11:24:35;4.60;;;1.60;;
7080;SDS011;3582;51.506;11.948;2024-03-23T11:27:02;8.23;;;2.08;;
7080;SDS011;3582;51.506;11.948;2024-03-23T11:29:29;4.80;;;2.33;;
7080;SDS011;3582;51.506;11.948;2024-03-23T11:31:55;3.20;;;2.90;;
7080;SDS011;3582;51.506;11.948;2024-03-23T11:34:21;4.95;;;1.90;;
7080;SDS011;3582;51.506;11.948;2024-03-23T11:36:47;4.63;;;1.80;;
7080;SDS011;3582;51.506;11.948;2024-03-23T11:39:16;6.35;;;2.20;;
7080;SDS011;3582;51.506;11.948;2024-03-23T11:41:52;8.38;;;2.33;;
7080;SDS011;3582;51.506;11.948;2024-03-23T11:44:18;2.67;;;1.20;;
7080;SDS011;3582;51.506;11.948;2024-03-23T11:46:44;5.82;;;2.20;;
7080;SDS011;3582;51.506;11.948;2024-03-23T11:49:26;1.73;;;1.63;;
7080;SDS011;3582;51.506;11.948;2024-03-23T11:51:53;2.75;;;1.13;;
7080;SDS011;3582;51.506;11.948;2024-03-23T11:54:20;3.80;;;1.90;;
7080;SDS011;3582;51.506;11.948;2024-03-23T11:56:59;3.10;;;1.63;;
7080;SDS011;3582;51.506;11.948;2024-03-23T11:59:38;3.60;;;2.58;;
7080;SDS011;3582;51.506;11.948;2024-03-23T12:02:08;2.78;;;1.38;;
7080;SDS011;3582;51.506;11.948;2024-03-23T12:04:35;1.50;;;1.30;;
7080;SDS011;3582;51.506;11.948;2024-03-23T12:09:40;3.73;;;1.63;;
7080;SDS011;3582;51.506;11.948;2024-03-23T12:12:16;6.13;;;1.70;;
7080;SDS011;3582;51.506;11.948;2024-03-23T12:14:43;4.33;;;1.43;;
7080;SDS011;3582;51.506;11.948;2024-03-23T12:17:13;2.00;;;1.73;;
7080;SDS011;3582;51.506;11.948;2024-03-23T12:19:39;2.40;;;2.20;;
7080;SDS011;3582;51.506;11.948;2024-03-23T12:22:06;2.63;;;2.10;;
7080;SDS011;3582;51.506;11.948;2024-03-23T12:24:33;2.50;;;2.03;;
7080;SDS011;3582;51.506;11.948;2024-03-23T12:27:02;4.50;;;2.77;;
7080;SDS011;3582;51.506;11.948;2024-03-23T12:29:29;5.10;;;2.90;;
7080;SDS011;3582;51.506;11.948;2024-03-23T12:31:56;7.93;;;3.80;;
7080;SDS011;3582;51.506;11.948;2024-03-23T12:34:22;6.93;;;3.27;;
7080;SDS011;3582;51.506;11.948;2024-03-23T12:36:48;4.40;;;2.90;;
7080;SDS011;3582;51.506;11.948;2024-03-23T12:39:14;5.70;;;3.50;;
7080;SDS011;3582;51.506;11.948;2024-03-23T12:41:40;3.77;;;3.47;;
7080;SDS011;3582;51.506;11.948;2024-03-23T12:44:06;9.30;;;4.00;;
7080;SDS011;3582;51.506;11.948;2024-03-23T12:46:34;8.83;;;3.67;;
7080;SDS011;3582;51.506;11.948;2024-03-23T12:49:00;4.93;;;3.17;;
7080;SDS011;3582;51.506;11.948;2024-03-23T12:51:26;6.80;;;3.80;;
7080;SDS011;3582;51.506;11.948;2024-03-23T12:53:52;6.23;;;3.67;;
7080;SDS011;3582;51.506;11.948;2024-03-23T12:56:18;18.50;;;4.00;;
7080;SDS011;3582;51.506;11.948;2024-03-23T12:58:43;3.70;;;3.00;;
7080;SDS011;3582;51.506;11.948;2024-03-23T13:01:09;6.73;;;3.30;;
7080;SDS011;3582;51.506;11.948;2024-03-23T13:03:35;8.13;;;3.50;;
7080;SDS011;3582;51.506;11.948;2024-03-23T13:06:02;9.67;;;4.10;;
7080;SDS011;3582;51.506;11.948;2024-03-23T13:08:32;5.50;;;3.47;;
7080;SDS011;3582;51.506;11.948;2024-03-23T13:10:58;6.70;;;3.50;;
7080;SDS011;3582;51.506;11.948;2024-03-23T13:13:24;5.43;;;3.50;;
7080;SDS011;3582;51.506;11.948;2024-03-23T13:15:50;9.27;;;4.63;;
7080;SDS011;3582;51.506;11.948;2024-03-23T13:18:16;16.77;;;3.93;;
7080;SDS011;3582;51.506;11.948;2024-03-23T13:20:42;6.27;;;3.60;;
7080;SDS011;3582;51.506;11.948;2024-03-23T13:23:08;7.47;;;3.40;;
7080;SDS011;3582;51.506;11.948;2024-03-23T13:25:34;6.67;;;3.53;;
7080;SDS011;3582;51.506;11.948;2024-03-23T13:28:00;7.90;;;5.00;;
7080;SDS011;3582;51.506;11.948;2024-03-23T13:30:27;8.50;;;4.27;;
7080;SDS011;3582;51.506;11.948;2024-03-23T13:32:53;6.47;;;3.63;;
7080;SDS011;3582;51.506;11.948;2024-03-23T13:35:19;8.10;;;4.10;;
7080;SDS011;3582;51.506;11.948;2024-03-23T13:37:45;8.10;;;4.03;;
7080;SDS011;3582;51.506;11.948;2024-03-23T13:40:11;8.03;;;4.40;;
7080;SDS011;3582;51.506;11.948;2024-03-23T13:42:37;6.80;;;4.87;;
7080;SDS011;3582;51.506;11.948;2024-03-23T13:45:03;9.03;;;5.10;;
7080;SDS011;3582;51.506;11.948;2024-03-23T13:47:29;7.47;;;3.70;;
7080;SDS011;3582;51.506;11.948;2024-03-23T13:49:55;4.97;;;2.90;;
7080;SDS011;3582;51.506;11.948;2024-03-23T13:52:21;7.63;;;2.60;;
7080;SDS011;3582;51.506;11.948;2024-03-23T13:54:51;4.13;;;2.33;;
7080;SDS011;3582;51.506;11.948;2024-03-23T13:57:17;8.20;;;2.40;;
7080;SDS011;3582;51.506;11.948;2024-03-23T13:59:46;4.05;;;2.13;;
7080;SDS011;3582;51.506;11.948;2024-03-23T14:02:12;6.97;;;3.20;;
7080;SDS011;3582;51.506;11.948;2024-03-23T14:04:39;5.85;;;2.75;;
7080;SDS011;3582;51.506;11.948;2024-03-23T14:07:05;7.20;;;2.70;;
7080;SDS011;3582;51.506;11.948;2024-03-23T14:09:32;2.22;;;2.03;;
7080;SDS011;3582;51.506;11.948;2024-03-23T14:11:58;3.67;;;1.80;;
7080;SDS011;3582;51.506;11.948;2024-03-23T14:14:25;4.38;;;2.60;;
7080;SDS011;3582;51.506;11.948;2024-03-23T14:16:51;4.50;;;2.87;;
7080;SDS011;3582;51.506;11.948;2024-03-23T14:19:18;1.85;;;1.75;;
7080;SDS011;3582;51.506;11.948;2024-03-23T14:21:44;2.55;;;1.85;;
7080;SDS011;3582;51.506;11.948;2024-03-23T14:24:10;3.53;;;2.30;;
7080;SDS011;3582;51.506;11.948;2024-03-23T14:26:36;3.57;;;2.10;;
7080;SDS011;3582;51.506;11.948;2024-03-23T14:29:02;4.47;;;1.75;;
7080;SDS011;3582;51.506;11.948;2024-03-23T14:31:28;2.10;;;1.90;;
7080;SDS011;3582;51.506;11.948;2024-03-23T14:33:54;2.77;;;2.57;;
7080;SDS011;3582;51.506;11.948;2024-03-23T14:36:20;4.60;;;2.20;;
7080;SDS011;3582;51.506;11.948;2024-03-23T14:38:47;2.57;;;2.37;;
7080;SDS011;3582;51.506;11.948;2024-03-23T14:41:13;5.72;;;3.00;;
7080;SDS011;3582;51.506;11.948;2024-03-23T14:43:39;4.68;;;3.78;;
7080;SDS011;3582;51.506;11.948;2024-03-23T14:48:31;4.27;;;3.90;;
7080;SDS011;3582;51.506;11.948;2024-03-23T14:50:57;6.35;;;4.22;;
7080;SDS011;3582;51.506;11.948;2024-03-23T14:53:24;6.40;;;4.00;;
7080;SDS011;3582;51.506;11.948;2024-03-23T14:55:51;4.13;;;3.72;;
7080;SDS011;3582;51.506;11.948;2024-03-23T14:58:16;5.17;;;4.47;;
7080;SDS011;3582;51.506;11.948;2024-03-23T15:00:42;5.27;;;4.77;;
7080;SDS011;3582;51.506;11.948;2024-03-23T15:03:08;9.40;;;4.80;;
7080;SDS011;3582;51.506;11.948;2024-03-23T15:05:34;8.43;;;4.57;;
7080;SDS011;3582;51.506;11.948;2024-03-23T15:08:02;8.05;;;5.35;;
7080;SDS011;3582;51.506;11.948;2024-03-23T15:10:28;4.75;;;4.03;;
7080;SDS011;3582;51.506;11.948;2024-03-23T15:12:54;4.37;;;4.03;;
7080;SDS011;3582;51.506;11.948;2024-03-23T15:15:20;9.10;;;3.97;;
7080;SDS011;3582;51.506;11.948;2024-03-23T15:17:46;4.80;;;4.30;;
7080;SDS011;3582;51.506;11.948;2024-03-23T15:20:12;5.03;;;4.53;;
7080;SDS011;3582;51.506;11.948;2024-03-23T15:22:38;4.57;;;4.17;;
7080;SDS011;3582;51.506;11.948;2024-03-23T15:25:03;5.03;;;4.13;;
7080;SDS011;3582;51.506;11.948;2024-03-23T15:27:29;4.63;;;4.27;;
7080;SDS011;3582;51.506;11.948;2024-03-23T15:29:55;8.63;;;5.00;;
7080;SDS011;3582;51.506;11.948;2024-03-23T15:32:22;7.18;;;4.20;;
7080;SDS011;3582;51.506;11.948;2024-03-23T15:34:48;5.00;;;3.90;;
7080;SDS011;3582;51.506;11.948;2024-03-23T15:37:14;6.07;;;4.70;;
7080;SDS011;3582;51.506;11.948;2024-03-23T15:39:41;5.03;;;4.53;;
7080;SDS011;3582;51.506;11.948;2024-03-23T15:42:07;6.90;;;4.30;;
7080;SDS011;3582;51.506;11.948;2024-03-23T15:44:33;5.20;;;4.75;;
7080;SDS011;3582;51.506;11.948;2024-03-23T15:46:59;7.90;;;5.20;;
7080;SDS011;3582;51.506;11.948;2024-03-23T15:49:25;6.63;;;6.03;;
7080;SDS011;3582;51.506;11.948;2024-03-23T15:51:51;4.63;;;4.28;;
7080;SDS011;3582;51.506;11.948;2024-03-23T15:54:18;5.50;;;4.18;;